Jicin, Czech Republic
Current Conditions -  °F | °C
As of 8:00 AM on Saturday 25 Oct 2014 (Local Time) from LKPD Reporting Station
Overcast Overcast  
Wind Chill: 36°   Ceiling: 2100
Heat Index: 36°   Visibility: 4mi
Dew Point: 36°   Wind: 2mph
Humidity: 100%   Direction: 90°E
Pressure: 30.21"   Gusts: NA
Location:  50.44°N, 15.35°E
Report Text: LKPD 250600Z 09002KT 6000 OVC021 02/02 Q1023 NOSIG
Loading
Personal Weather Stations






























Interactive Weather Map
Tropical Storm Tracking
New forecast layout! Learn more

10-Day Weather Forecast

Advertisements
Track Severe Weather on mobile